sensor_id;sensor_type;location;lat;lon;timestamp;temperature;humidity
814;DHT22;389;48.710;9.392;2022-08-11T00:02:49;17.30;68.80
814;DHT22;389;48.710;9.392;2022-08-11T00:05:17;17.30;69.10
814;DHT22;389;48.710;9.392;2022-08-11T00:07:53;17.40;69.60
814;DHT22;389;48.710;9.392;2022-08-11T00:10:24;17.30;69.60
814;DHT22;389;48.710;9.392;2022-08-11T00:12:59;17.20;69.70
814;DHT22;389;48.710;9.392;2022-08-11T00:15:28;17.30;70.20
814;DHT22;389;48.710;9.392;2022-08-11T00:18:02;17.10;70.30
814;DHT22;389;48.710;9.392;2022-08-11T00:20:33;17.00;70.70
814;DHT22;389;48.710;9.392;2022-08-11T00:23:04;17.10;71.30
814;DHT22;389;48.710;9.392;2022-08-11T00:25:40;16.90;71.80
814;DHT22;389;48.710;9.392;2022-08-11T00:28:23;16.90;72.30
814;DHT22;389;48.710;9.392;2022-08-11T00:30:50;16.90;72.80
814;DHT22;389;48.710;9.392;2022-08-11T00:33:16;16.80;73.00
814;DHT22;389;48.710;9.392;2022-08-11T00:35:44;16.90;73.60
814;DHT22;389;48.710;9.392;2022-08-11T00:38:10;16.70;74.10
814;DHT22;389;48.710;9.392;2022-08-11T00:40:43;16.80;74.80
814;DHT22;389;48.710;9.392;2022-08-11T00:43:50;16.60;75.00
814;DHT22;389;48.710;9.392;2022-08-11T00:51:32;16.50;76.60
814;DHT22;389;48.710;9.392;2022-08-11T01:00:03;16.30;78.80
814;DHT22;389;48.710;9.392;2022-08-11T01:02:46;16.30;79.40
814;DHT22;389;48.710;9.392;2022-08-11T01:22:58;16.00;83.10
814;DHT22;389;48.710;9.392;2022-08-11T01:34:49;15.80;85.90
814;DHT22;389;48.710;9.392;2022-08-11T01:40:26;15.70;87.20
814;DHT22;389;48.710;9.392;2022-08-11T01:46:25;15.70;88.80
814;DHT22;389;48.710;9.392;2022-08-11T01:49:30;15.70;89.20
814;DHT22;389;48.710;9.392;2022-08-11T01:59:53;15.50;90.50
814;DHT22;389;48.710;9.392;2022-08-11T02:05:57;15.50;90.80
814;DHT22;389;48.710;9.392;2022-08-11T02:08:46;15.40;90.90
814;DHT22;389;48.710;9.392;2022-08-11T02:11:31;15.30;91.00
814;DHT22;389;48.710;9.392;2022-08-11T02:25:06;15.20;91.60
814;DHT22;389;48.710;9.392;2022-08-11T02:30:05;15.10;91.90
814;DHT22;389;48.710;9.392;2022-08-11T02:32:49;15.00;92.00
814;DHT22;389;48.710;9.392;2022-08-11T02:41:42;14.90;92.50
814;DHT22;389;48.710;9.392;2022-08-11T02:44:50;14.90;92.60
814;DHT22;389;48.710;9.392;2022-08-11T02:59:42;14.70;92.60
814;DHT22;389;48.710;9.392;2022-08-11T03:10:33;14.60;92.90
814;DHT22;389;48.710;9.392;2022-08-11T03:13:30;14.60;92.60
814;DHT22;389;48.710;9.392;2022-08-11T03:16:25;14.50;92.60
814;DHT22;389;48.710;9.392;2022-08-11T03:19:21;14.50;92.70
814;DHT22;389;48.710;9.392;2022-08-11T03:36:02;14.40;93.70
814;DHT22;389;48.710;9.392;2022-08-11T03:38:56;14.30;94.20
814;DHT22;389;48.710;9.392;2022-08-11T03:44:49;14.30;94.50
814;DHT22;389;48.710;9.392;2022-08-11T03:50:33;14.20;94.70
814;DHT22;389;48.710;9.392;2022-08-11T03:56:33;14.20;94.80
814;DHT22;389;48.710;9.392;2022-08-11T03:59:21;14.10;95.10
814;DHT22;389;48.710;9.392;2022-08-11T04:22:14;14.00;95.20
814;DHT22;389;48.710;9.392;2022-08-11T04:57:46;14.30;95.20
814;DHT22;389;48.710;9.392;2022-08-11T05:14:54;14.90;95.50
814;DHT22;389;48.710;9.392;2022-08-11T05:18:00;15.10;95.70
814;DHT22;389;48.710;9.392;2022-08-11T05:20:52;15.50;96.10
814;DHT22;389;48.710;9.392;2022-08-11T05:23:41;16.10;95.90
814;DHT22;389;48.710;9.392;2022-08-11T05:26:26;16.80;95.20
814;DHT22;389;48.710;9.392;2022-08-11T05:29:27;17.50;94.40
814;DHT22;389;48.710;9.392;2022-08-11T05:32:19;18.30;92.20
814;DHT22;389;48.710;9.392;2022-08-11T05:35:05;18.90;91.10
814;DHT22;389;48.710;9.392;2022-08-11T05:37:42;19.60;90.00
814;DHT22;389;48.710;9.392;2022-08-11T05:40:28;20.10;87.90
814;DHT22;389;48.710;9.392;2022-08-11T05:43:14;20.60;84.80
814;DHT22;389;48.710;9.392;2022-08-11T05:46:03;21.10;82.80
814;DHT22;389;48.710;9.392;2022-08-11T05:48:49;21.50;79.90
814;DHT22;389;48.710;9.392;2022-08-11T05:51:40;22.00;78.00
814;DHT22;389;48.710;9.392;2022-08-11T05:54:26;22.40;75.70
814;DHT22;389;48.710;9.392;2022-08-11T05:57:28;22.80;74.20
814;DHT22;389;48.710;9.392;2022-08-11T06:00:03;23.10;72.50
814;DHT22;389;48.710;9.392;2022-08-11T06:02:43;23.40;72.10
814;DHT22;389;48.710;9.392;2022-08-11T06:05:11;23.70;71.50
814;DHT22;389;48.710;9.392;2022-08-11T06:07:37;23.90;70.70
814;DHT22;389;48.710;9.392;2022-08-11T06:10:04;24.10;70.00
814;DHT22;389;48.710;9.392;2022-08-11T06:12:32;24.30;69.20
814;DHT22;389;48.710;9.392;2022-08-11T06:15:06;24.50;68.80
814;DHT22;389;48.710;9.392;2022-08-11T06:17:35;24.60;68.00
814;DHT22;389;48.710;9.392;2022-08-11T06:20:09;24.80;67.40
814;DHT22;389;48.710;9.392;2022-08-11T06:22:38;25.00;66.70
814;DHT22;389;48.710;9.392;2022-08-11T06:25:05;25.20;66.00
814;DHT22;389;48.710;9.392;2022-08-11T06:27:34;25.40;65.40
814;DHT22;389;48.710;9.392;2022-08-11T06:30:01;25.60;63.70
814;DHT22;389;48.710;9.392;2022-08-11T06:32:31;25.80;62.70
814;DHT22;389;48.710;9.392;2022-08-11T06:43:22;26.70;58.90
814;DHT22;389;48.710;9.392;2022-08-11T06:46:01;26.50;56.90
814;DHT22;389;48.710;9.392;2022-08-11T06:48:30;26.20;57.50
814;DHT22;389;48.710;9.392;2022-08-11T06:51:01;26.10;57.70
814;DHT22;389;48.710;9.392;2022-08-11T06:53:50;25.90;57.80
814;DHT22;389;48.710;9.392;2022-08-11T06:56:22;25.70;57.80
814;DHT22;389;48.710;9.392;2022-08-11T06:59:09;25.50;57.50
814;DHT22;389;48.710;9.392;2022-08-11T07:04:48;25.20;58.00
814;DHT22;389;48.710;9.392;2022-08-11T07:13:02;24.70;58.70
814;DHT22;389;48.710;9.392;2022-08-11T07:15:47;24.70;59.20
814;DHT22;389;48.710;9.392;2022-08-11T07:18:25;24.60;59.00
814;DHT22;389;48.710;9.392;2022-08-11T07:21:28;24.60;58.90
814;DHT22;389;48.710;9.392;2022-08-11T07:24:19;24.60;59.00
814;DHT22;389;48.710;9.392;2022-08-11T07:27:08;24.60;58.50
814;DHT22;389;48.710;9.392;2022-08-11T07:29:54;24.60;58.50
814;DHT22;389;48.710;9.392;2022-08-11T07:32:33;24.60;58.70
814;DHT22;389;48.710;9.392;2022-08-11T07:37:31;24.50;58.50
814;DHT22;389;48.710;9.392;2022-08-11T07:39:59;24.50;58.80
814;DHT22;389;48.710;9.392;2022-08-11T07:42:30;24.60;59.10
814;DHT22;389;48.710;9.392;2022-08-11T07:45:03;24.60;59.00
814;DHT22;389;48.710;9.392;2022-08-11T07:47:48;24.70;58.90
814;DHT22;389;48.710;9.392;2022-08-11T07:50:34;24.70;59.20
814;DHT22;389;48.710;9.392;2022-08-11T07:53:20;24.80;59.20
814;DHT22;389;48.710;9.392;2022-08-11T07:55:47;25.00;58.90
814;DHT22;389;48.710;9.392;2022-08-11T07:58:15;25.00;58.70
814;DHT22;389;48.710;9.392;2022-08-11T08:01:00;25.10;58.80
814;DHT22;389;48.710;9.392;2022-08-11T08:03:45;25.20;58.00
814;DHT22;389;48.710;9.392;2022-08-11T08:06:31;25.20;58.00
814;DHT22;389;48.710;9.392;2022-08-11T08:09:18;25.30;58.30
814;DHT22;389;48.710;9.392;2022-08-11T08:12:03;25.40;58.20
814;DHT22;389;48.710;9.392;2022-08-11T08:14:49;25.50;57.80
814;DHT22;389;48.710;9.392;2022-08-11T08:17:34;25.50;57.70
814;DHT22;389;48.710;9.392;2022-08-11T08:20:21;25.60;57.40
814;DHT22;389;48.710;9.392;2022-08-11T08:23:07;25.70;57.60
814;DHT22;389;48.710;9.392;2022-08-11T08:25:39;25.70;57.60
814;DHT22;389;48.710;9.392;2022-08-11T08:28:08;25.80;56.80
814;DHT22;389;48.710;9.392;2022-08-11T08:30:35;25.90;57.40
814;DHT22;389;48.710;9.392;2022-08-11T08:33:35;26.00;57.00
814;DHT22;389;48.710;9.392;2022-08-11T08:36:05;26.10;56.10
814;DHT22;389;48.710;9.392;2022-08-11T08:38:48;26.10;55.20
814;DHT22;389;48.710;9.392;2022-08-11T08:41:27;26.20;55.70
814;DHT22;389;48.710;9.392;2022-08-11T08:43:57;26.20;54.80
814;DHT22;389;48.710;9.392;2022-08-11T08:46:31;26.30;54.70
814;DHT22;389;48.710;9.392;2022-08-11T08:49:03;26.30;54.50
814;DHT22;389;48.710;9.392;2022-08-11T08:51:32;26.40;54.00
814;DHT22;389;48.710;9.392;2022-08-11T08:54:09;26.50;53.80
814;DHT22;389;48.710;9.392;2022-08-11T08:56:39;26.50;53.70
814;DHT22;389;48.710;9.392;2022-08-11T08:59:05;26.60;53.90
814;DHT22;389;48.710;9.392;2022-08-11T09:01:37;26.60;52.30
814;DHT22;389;48.710;9.392;2022-08-11T09:04:08;26.70;52.10
814;DHT22;389;48.710;9.392;2022-08-11T09:06:37;26.70;52.20
814;DHT22;389;48.710;9.392;2022-08-11T09:09:08;26.80;52.10
814;DHT22;389;48.710;9.392;2022-08-11T09:11:35;26.90;52.80
814;DHT22;389;48.710;9.392;2022-08-11T09:14:36;27.00;52.90
814;DHT22;389;48.710;9.392;2022-08-11T09:17:44;27.00;51.50
814;DHT22;389;48.710;9.392;2022-08-11T09:20:13;27.10;51.00
814;DHT22;389;48.710;9.392;2022-08-11T09:22:42;27.20;51.00
814;DHT22;389;48.710;9.392;2022-08-11T09:25:29;27.30;50.80
814;DHT22;389;48.710;9.392;2022-08-11T09:28:15;27.40;51.20
814;DHT22;389;48.710;9.392;2022-08-11T09:30:43;27.40;50.80
814;DHT22;389;48.710;9.392;2022-08-11T09:33:12;27.50;50.50
814;DHT22;389;48.710;9.392;2022-08-11T09:35:40;27.70;50.30
814;DHT22;389;48.710;9.392;2022-08-11T09:38:10;27.80;49.30
814;DHT22;389;48.710;9.392;2022-08-11T09:40:56;27.90;49.30
814;DHT22;389;48.710;9.392;2022-08-11T09:43:23;27.90;49.40
814;DHT22;389;48.710;9.392;2022-08-11T09:46:08;27.90;48.50
814;DHT22;389;48.710;9.392;2022-08-11T09:48:44;27.90;48.50
814;DHT22;389;48.710;9.392;2022-08-11T09:51:12;28.00;48.30
814;DHT22;389;48.710;9.392;2022-08-11T09:53:42;28.00;47.50
814;DHT22;389;48.710;9.392;2022-08-11T09:56:14;27.90;46.80
814;DHT22;389;48.710;9.392;2022-08-11T09:59:00;27.90;47.40
814;DHT22;389;48.710;9.392;2022-08-11T10:01:30;27.90;47.50
814;DHT22;389;48.710;9.392;2022-08-11T10:04:16;27.90;47.10
814;DHT22;389;48.710;9.392;2022-08-11T10:06:44;27.90;47.70
814;DHT22;389;48.710;9.392;2022-08-11T10:09:51;27.90;47.50
814;DHT22;389;48.710;9.392;2022-08-11T10:12:23;27.90;47.20
814;DHT22;389;48.710;9.392;2022-08-11T10:14:55;28.00;47.40
814;DHT22;389;48.710;9.392;2022-08-11T10:17:42;28.10;46.90
814;DHT22;389;48.710;9.392;2022-08-11T10:20:29;28.10;45.80
814;DHT22;389;48.710;9.392;2022-08-11T10:22:57;28.10;46.00
814;DHT22;389;48.710;9.392;2022-08-11T10:25:41;28.20;45.90
814;DHT22;389;48.710;9.392;2022-08-11T10:28:26;28.20;45.60
814;DHT22;389;48.710;9.392;2022-08-11T10:30:53;28.30;46.50
814;DHT22;389;48.710;9.392;2022-08-11T10:33:38;28.30;46.00
814;DHT22;389;48.710;9.392;2022-08-11T10:36:22;28.40;45.50
814;DHT22;389;48.710;9.392;2022-08-11T10:38:48;28.50;45.10
814;DHT22;389;48.710;9.392;2022-08-11T10:41:17;28.50;45.10
814;DHT22;389;48.710;9.392;2022-08-11T10:44:02;28.60;43.80
814;DHT22;389;48.710;9.392;2022-08-11T10:46:29;28.60;44.00
814;DHT22;389;48.710;9.392;2022-08-11T10:49:13;28.60;43.90
814;DHT22;389;48.710;9.392;2022-08-11T10:51:39;28.60;44.80
814;DHT22;389;48.710;9.392;2022-08-11T10:54:24;28.60;45.00
814;DHT22;389;48.710;9.392;2022-08-11T10:57:09;28.60;44.80
814;DHT22;389;48.710;9.392;2022-08-11T10:59:55;28.60;44.90
814;DHT22;389;48.710;9.392;2022-08-11T11:02:21;28.70;44.70
814;DHT22;389;48.710;9.392;2022-08-11T11:07:22;28.80;44.10
814;DHT22;389;48.710;9.392;2022-08-11T11:09:58;28.80;44.00
814;DHT22;389;48.710;9.392;2022-08-11T11:15:21;28.90;44.00
814;DHT22;389;48.710;9.392;2022-08-11T11:18:10;28.90;43.50
814;DHT22;389;48.710;9.392;2022-08-11T11:23:19;29.00;42.60
814;DHT22;389;48.710;9.392;2022-08-11T11:26:30;29.10;43.00
814;DHT22;389;48.710;9.392;2022-08-11T11:32:16;29.10;42.60
814;DHT22;389;48.710;9.392;2022-08-11T11:37:32;29.20;43.10
814;DHT22;389;48.710;9.392;2022-08-11T11:40:07;29.20;42.60
814;DHT22;389;48.710;9.392;2022-08-11T11:42:35;29.20;42.80
814;DHT22;389;48.710;9.392;2022-08-11T11:45:02;29.20;41.70
814;DHT22;389;48.710;9.392;2022-08-11T11:47:29;29.30;42.50
814;DHT22;389;48.710;9.392;2022-08-11T11:49:55;29.30;42.10
814;DHT22;389;48.710;9.392;2022-08-11T11:52:21;29.40;41.20
814;DHT22;389;48.710;9.392;2022-08-11T11:54:51;29.40;41.30
814;DHT22;389;48.710;9.392;2022-08-11T11:57:19;29.40;42.00
814;DHT22;389;48.710;9.392;2022-08-11T12:00:06;29.50;42.30
814;DHT22;389;48.710;9.392;2022-08-11T12:02:51;29.50;42.20
814;DHT22;389;48.710;9.392;2022-08-11T12:05:17;29.50;41.80
814;DHT22;389;48.710;9.392;2022-08-11T12:07:43;29.50;42.10
814;DHT22;389;48.710;9.392;2022-08-11T12:10:29;29.60;41.40
814;DHT22;389;48.710;9.392;2022-08-11T12:12:58;29.60;41.60
814;DHT22;389;48.710;9.392;2022-08-11T12:15:45;29.60;41.60
814;DHT22;389;48.710;9.392;2022-08-11T12:18:11;29.70;41.10
814;DHT22;389;48.710;9.392;2022-08-11T12:20:38;29.70;41.00
814;DHT22;389;48.710;9.392;2022-08-11T12:23:04;29.70;40.80
814;DHT22;389;48.710;9.392;2022-08-11T12:26:02;29.70;40.40
814;DHT22;389;48.710;9.392;2022-08-11T12:28:47;29.70;41.40
814;DHT22;389;48.710;9.392;2022-08-11T12:31:12;29.70;41.70
814;DHT22;389;48.710;9.392;2022-08-11T12:33:38;29.80;40.50
814;DHT22;389;48.710;9.392;2022-08-11T12:36:09;29.80;40.70
814;DHT22;389;48.710;9.392;2022-08-11T12:38:40;29.80;40.10
814;DHT22;389;48.710;9.392;2022-08-11T12:41:06;29.80;40.30
814;DHT22;389;48.710;9.392;2022-08-11T12:43:51;29.80;40.70
814;DHT22;389;48.710;9.392;2022-08-11T12:46:36;29.80;40.80
814;DHT22;389;48.710;9.392;2022-08-11T12:49:22;29.90;41.30
814;DHT22;389;48.710;9.392;2022-08-11T12:52:10;29.90;40.20
814;DHT22;389;48.710;9.392;2022-08-11T12:55:01;30.00;41.30
814;DHT22;389;48.710;9.392;2022-08-11T12:57:40;30.10;40.30
814;DHT22;389;48.710;9.392;2022-08-11T13:00:28;30.10;40.00
814;DHT22;389;48.710;9.392;2022-08-11T13:03:13;30.20;39.60
814;DHT22;389;48.710;9.392;2022-08-11T13:06:03;30.20;39.60
814;DHT22;389;48.710;9.392;2022-08-11T13:08:30;30.20;39.10
814;DHT22;389;48.710;9.392;2022-08-11T13:10:59;30.20;39.10
814;DHT22;389;48.710;9.392;2022-08-11T13:13:47;30.20;38.80
814;DHT22;389;48.710;9.392;2022-08-11T13:16:13;30.20;39.10
814;DHT22;389;48.710;9.392;2022-08-11T13:18:40;30.20;38.80
814;DHT22;389;48.710;9.392;2022-08-11T13:21:09;30.30;39.10
814;DHT22;389;48.710;9.392;2022-08-11T13:23:37;30.30;38.60
814;DHT22;389;48.710;9.392;2022-08-11T13:26:03;30.30;39.20
814;DHT22;389;48.710;9.392;2022-08-11T13:28:29;30.30;39.30
814;DHT22;389;48.710;9.392;2022-08-11T13:30:55;30.30;38.50
814;DHT22;389;48.710;9.392;2022-08-11T13:33:45;30.50;39.10
814;DHT22;389;48.710;9.392;2022-08-11T13:36:12;30.50;39.60
814;DHT22;389;48.710;9.392;2022-08-11T13:38:41;30.60;39.10
814;DHT22;389;48.710;9.392;2022-08-11T13:41:08;30.70;39.40
814;DHT22;389;48.710;9.392;2022-08-11T13:43:55;30.70;38.20
814;DHT22;389;48.710;9.392;2022-08-11T13:46:22;30.80;39.30
814;DHT22;389;48.710;9.392;2022-08-11T13:48:53;30.80;38.60
814;DHT22;389;48.710;9.392;2022-08-11T13:51:21;30.90;38.60
814;DHT22;389;48.710;9.392;2022-08-11T13:54:08;31.00;38.30
814;DHT22;389;48.710;9.392;2022-08-11T13:56:36;31.00;37.90
814;DHT22;389;48.710;9.392;2022-08-11T13:59:06;30.90;38.00
814;DHT22;389;48.710;9.392;2022-08-11T14:01:34;30.90;38.00
814;DHT22;389;48.710;9.392;2022-08-11T14:04:10;30.90;37.60
814;DHT22;389;48.710;9.392;2022-08-11T14:06:44;30.90;38.10
814;DHT22;389;48.710;9.392;2022-08-11T14:09:10;30.90;37.40
814;DHT22;389;48.710;9.392;2022-08-11T14:11:39;31.00;38.20
814;DHT22;389;48.710;9.392;2022-08-11T14:14:26;31.00;38.50
814;DHT22;389;48.710;9.392;2022-08-11T14:17:01;31.00;38.40
814;DHT22;389;48.710;9.392;2022-08-11T14:19:29;31.00;38.10
814;DHT22;389;48.710;9.392;2022-08-11T14:21:58;31.00;38.50
814;DHT22;389;48.710;9.392;2022-08-11T14:24:38;31.00;38.20
814;DHT22;389;48.710;9.392;2022-08-11T14:27:10;31.00;38.00
814;DHT22;389;48.710;9.392;2022-08-11T14:29:39;31.00;37.80
814;DHT22;389;48.710;9.392;2022-08-11T14:32:07;31.10;38.40
814;DHT22;389;48.710;9.392;2022-08-11T14:34:35;31.10;37.10
814;DHT22;389;48.710;9.392;2022-08-11T14:37:06;31.10;37.80
814;DHT22;389;48.710;9.392;2022-08-11T14:39:47;31.20;37.80
814;DHT22;389;48.710;9.392;2022-08-11T14:42:16;31.20;37.40
814;DHT22;389;48.710;9.392;2022-08-11T14:45:04;31.20;37.50
814;DHT22;389;48.710;9.392;2022-08-11T14:47:53;31.30;38.20
814;DHT22;389;48.710;9.392;2022-08-11T14:50:28;31.30;38.00
814;DHT22;389;48.710;9.392;2022-08-11T14:52:58;31.30;38.10
814;DHT22;389;48.710;9.392;2022-08-11T14:55:27;31.40;38.20
814;DHT22;389;48.710;9.392;2022-08-11T14:58:15;31.40;37.90
814;DHT22;389;48.710;9.392;2022-08-11T15:00:42;31.40;37.80
814;DHT22;389;48.710;9.392;2022-08-11T15:03:10;31.40;37.70
814;DHT22;389;48.710;9.392;2022-08-11T15:05:47;31.40;37.30
814;DHT22;389;48.710;9.392;2022-08-11T15:08:14;31.50;38.00
814;DHT22;389;48.710;9.392;2022-08-11T15:10:41;31.50;37.70
814;DHT22;389;48.710;9.392;2022-08-11T15:13:07;31.50;37.70
814;DHT22;389;48.710;9.392;2022-08-11T15:15:36;31.50;36.50
814;DHT22;389;48.710;9.392;2022-08-11T15:18:24;31.50;37.00
814;DHT22;389;48.710;9.392;2022-08-11T15:20:51;31.50;36.90
814;DHT22;389;48.710;9.392;2022-08-11T15:23:38;31.50;36.90
814;DHT22;389;48.710;9.392;2022-08-11T15:26:37;31.40;37.20
814;DHT22;389;48.710;9.392;2022-08-11T15:29:24;31.40;37.60
814;DHT22;389;48.710;9.392;2022-08-11T15:32:09;31.30;37.30
814;DHT22;389;48.710;9.392;2022-08-11T15:34:58;31.30;37.50
814;DHT22;389;48.710;9.392;2022-08-11T15:37:43;31.20;37.20
814;DHT22;389;48.710;9.392;2022-08-11T15:40:30;31.20;38.10
814;DHT22;389;48.710;9.392;2022-08-11T15:43:30;31.20;37.60
814;DHT22;389;48.710;9.392;2022-08-11T15:46:22;31.10;37.80
814;DHT22;389;48.710;9.392;2022-08-11T15:49:13;31.10;37.60
814;DHT22;389;48.710;9.392;2022-08-11T15:52:02;31.00;37.80
814;DHT22;389;48.710;9.392;2022-08-11T15:54:31;31.00;38.10
814;DHT22;389;48.710;9.392;2022-08-11T15:56:59;31.00;38.50
814;DHT22;389;48.710;9.392;2022-08-11T15:59:32;31.00;38.00
814;DHT22;389;48.710;9.392;2022-08-11T16:02:20;31.00;37.40
814;DHT22;389;48.710;9.392;2022-08-11T16:05:09;30.90;37.90
814;DHT22;389;48.710;9.392;2022-08-11T16:07:36;30.90;37.90
814;DHT22;389;48.710;9.392;2022-08-11T16:10:08;30.90;37.70
814;DHT22;389;48.710;9.392;2022-08-11T16:12:42;30.90;37.30
814;DHT22;389;48.710;9.392;2022-08-11T16:15:50;30.90;37.10
814;DHT22;389;48.710;9.392;2022-08-11T16:21:14;30.80;37.20
814;DHT22;389;48.710;9.392;2022-08-11T16:23:43;30.70;37.60
814;DHT22;389;48.710;9.392;2022-08-11T16:26:11;30.70;37.90
814;DHT22;389;48.710;9.392;2022-08-11T16:28:39;30.70;38.00
814;DHT22;389;48.710;9.392;2022-08-11T16:31:06;30.70;38.10
814;DHT22;389;48.710;9.392;2022-08-11T16:33:36;30.70;38.10
814;DHT22;389;48.710;9.392;2022-08-11T16:36:06;30.70;37.80
814;DHT22;389;48.710;9.392;2022-08-11T16:38:53;30.60;37.90
814;DHT22;389;48.710;9.392;2022-08-11T16:41:21;30.60;37.90
814;DHT22;389;48.710;9.392;2022-08-11T16:44:08;30.50;38.00
814;DHT22;389;48.710;9.392;2022-08-11T16:46:53;30.50;37.80
814;DHT22;389;48.710;9.392;2022-08-11T16:49:42;30.50;38.10
814;DHT22;389;48.710;9.392;2022-08-11T16:52:08;30.40;37.90
814;DHT22;389;48.710;9.392;2022-08-11T16:54:38;30.40;38.00
814;DHT22;389;48.710;9.392;2022-08-11T16:57:21;30.30;38.20
814;DHT22;389;48.710;9.392;2022-08-11T17:00:08;30.30;37.50
814;DHT22;389;48.710;9.392;2022-08-11T17:02:46;30.20;37.50
814;DHT22;389;48.710;9.392;2022-08-11T17:05:33;30.20;37.50
814;DHT22;389;48.710;9.392;2022-08-11T17:08:22;30.20;37.80
814;DHT22;389;48.710;9.392;2022-08-11T17:11:09;30.10;37.40
814;DHT22;389;48.710;9.392;2022-08-11T17:13:59;30.10;37.10
814;DHT22;389;48.710;9.392;2022-08-11T17:16:32;30.10;37.20
814;DHT22;389;48.710;9.392;2022-08-11T17:19:03;30.00;37.70
814;DHT22;389;48.710;9.392;2022-08-11T17:21:33;30.00;38.00
814;DHT22;389;48.710;9.392;2022-08-11T17:24:22;29.90;38.40
814;DHT22;389;48.710;9.392;2022-08-11T17:26:49;29.80;38.20
814;DHT22;389;48.710;9.392;2022-08-11T17:31:54;29.80;38.70
814;DHT22;389;48.710;9.392;2022-08-11T17:34:42;29.70;39.00
814;DHT22;389;48.710;9.392;2022-08-11T17:37:28;29.70;39.10
814;DHT22;389;48.710;9.392;2022-08-11T17:39:56;29.60;39.50
814;DHT22;389;48.710;9.392;2022-08-11T17:42:23;29.60;39.00
814;DHT22;389;48.710;9.392;2022-08-11T17:45:10;29.70;38.80
814;DHT22;389;48.710;9.392;2022-08-11T17:47:55;29.70;38.40
814;DHT22;389;48.710;9.392;2022-08-11T17:50:41;29.80;39.00
814;DHT22;389;48.710;9.392;2022-08-11T17:53:07;30.10;39.70
814;DHT22;389;48.710;9.392;2022-08-11T17:55:56;30.20;39.30
814;DHT22;389;48.710;9.392;2022-08-11T17:58:58;30.50;38.40
814;DHT22;389;48.710;9.392;2022-08-11T18:01:45;30.60;38.20
814;DHT22;389;48.710;9.392;2022-08-11T18:04:12;30.70;38.20
814;DHT22;389;48.710;9.392;2022-08-11T18:06:40;30.80;38.30
814;DHT22;389;48.710;9.392;2022-08-11T18:09:16;30.80;38.70
814;DHT22;389;48.710;9.392;2022-08-11T18:12:04;30.80;38.80
814;DHT22;389;48.710;9.392;2022-08-11T18:14:53;30.70;39.10
814;DHT22;389;48.710;9.392;2022-08-11T18:17:40;30.60;39.70
814;DHT22;389;48.710;9.392;2022-08-11T18:20:25;30.40;40.50
814;DHT22;389;48.710;9.392;2022-08-11T18:23:20;30.20;41.00
814;DHT22;389;48.710;9.392;2022-08-11T18:26:05;29.80;41.70
814;DHT22;389;48.710;9.392;2022-08-11T18:28:53;29.50;42.20
814;DHT22;389;48.710;9.392;2022-08-11T18:31:43;29.20;42.70
814;DHT22;389;48.710;9.392;2022-08-11T18:34:34;28.90;43.50
814;DHT22;389;48.710;9.392;2022-08-11T18:37:26;28.50;44.00
814;DHT22;389;48.710;9.392;2022-08-11T18:40:15;28.20;44.80
814;DHT22;389;48.710;9.392;2022-08-11T18:43:04;27.70;45.40
814;DHT22;389;48.710;9.392;2022-08-11T18:45:51;27.40;46.10
814;DHT22;389;48.710;9.392;2022-08-11T18:48:38;26.90;46.50
814;DHT22;389;48.710;9.392;2022-08-11T18:51:25;26.60;47.30
814;DHT22;389;48.710;9.392;2022-08-11T18:54:11;26.20;47.80
814;DHT22;389;48.710;9.392;2022-08-11T18:57:01;26.00;48.20
814;DHT22;389;48.710;9.392;2022-08-11T18:59:47;25.60;48.60
814;DHT22;389;48.710;9.392;2022-08-11T19:02:36;25.30;49.10
814;DHT22;389;48.710;9.392;2022-08-11T19:05:21;25.00;49.70
814;DHT22;389;48.710;9.392;2022-08-11T19:08:07;24.80;49.50
814;DHT22;389;48.710;9.392;2022-08-11T19:10:52;24.60;49.80
814;DHT22;389;48.710;9.392;2022-08-11T19:13:38;24.30;50.30
814;DHT22;389;48.710;9.392;2022-08-11T19:16:24;24.10;50.70
814;DHT22;389;48.710;9.392;2022-08-11T19:19:12;23.90;50.80
814;DHT22;389;48.710;9.392;2022-08-11T19:21:59;23.60;51.40
814;DHT22;389;48.710;9.392;2022-08-11T19:24:46;23.50;51.80
814;DHT22;389;48.710;9.392;2022-08-11T19:27:32;23.30;51.90
814;DHT22;389;48.710;9.392;2022-08-11T19:30:17;23.10;52.20
814;DHT22;389;48.710;9.392;2022-08-11T19:33:02;22.90;52.60
814;DHT22;389;48.710;9.392;2022-08-11T19:35:47;22.70;52.80
814;DHT22;389;48.710;9.392;2022-08-11T19:38:33;22.60;52.90
814;DHT22;389;48.710;9.392;2022-08-11T19:41:19;22.50;53.20
814;DHT22;389;48.710;9.392;2022-08-11T19:44:06;22.40;53.40
814;DHT22;389;48.710;9.392;2022-08-11T19:46:51;22.20;53.60
814;DHT22;389;48.710;9.392;2022-08-11T19:49:37;22.10;53.90
814;DHT22;389;48.710;9.392;2022-08-11T19:52:25;21.90;54.20
814;DHT22;389;48.710;9.392;2022-08-11T19:55:11;21.80;54.60
814;DHT22;389;48.710;9.392;2022-08-11T19:57:56;21.70;54.70
814;DHT22;389;48.710;9.392;2022-08-11T20:00:41;21.60;54.80
814;DHT22;389;48.710;9.392;2022-08-11T20:03:25;21.60;55.20
814;DHT22;389;48.710;9.392;2022-08-11T20:06:10;21.40;55.30
814;DHT22;389;48.710;9.392;2022-08-11T20:08:59;21.30;55.30
814;DHT22;389;48.710;9.392;2022-08-11T20:11:47;21.20;55.70
814;DHT22;389;48.710;9.392;2022-08-11T20:14:34;21.10;55.70
814;DHT22;389;48.710;9.392;2022-08-11T20:17:21;21.00;55.70
814;DHT22;389;48.710;9.392;2022-08-11T20:20:07;20.90;55.70
814;DHT22;389;48.710;9.392;2022-08-11T20:22:58;20.90;55.70
814;DHT22;389;48.710;9.392;2022-08-11T20:25:44;20.80;55.70
814;DHT22;389;48.710;9.392;2022-08-11T20:28:30;20.70;55.60
814;DHT22;389;48.710;9.392;2022-08-11T20:31:17;20.60;55.70
814;DHT22;389;48.710;9.392;2022-08-11T20:34:04;20.60;55.90
814;DHT22;389;48.710;9.392;2022-08-11T20:36:50;20.50;56.50
814;DHT22;389;48.710;9.392;2022-08-11T20:39:36;20.50;56.10
814;DHT22;389;48.710;9.392;2022-08-11T20:42:22;20.40;56.10
814;DHT22;389;48.710;9.392;2022-08-11T20:45:09;20.40;56.70
814;DHT22;389;48.710;9.392;2022-08-11T20:47:56;20.30;56.60
814;DHT22;389;48.710;9.392;2022-08-11T20:50:42;20.20;57.00
814;DHT22;389;48.710;9.392;2022-08-11T20:53:27;20.20;57.00
814;DHT22;389;48.710;9.392;2022-08-11T20:56:13;20.10;57.10
814;DHT22;389;48.710;9.392;2022-08-11T20:59:00;20.10;57.10
814;DHT22;389;48.710;9.392;2022-08-11T21:01:46;20.00;57.00
814;DHT22;389;48.710;9.392;2022-08-11T21:04:30;20.00;57.00
814;DHT22;389;48.710;9.392;2022-08-11T21:07:16;19.90;57.00
814;DHT22;389;48.710;9.392;2022-08-11T21:10:02;19.90;56.90
814;DHT22;389;48.710;9.392;2022-08-11T21:12:48;19.90;57.20
814;DHT22;389;48.710;9.392;2022-08-11T21:15:35;19.90;57.50
814;DHT22;389;48.710;9.392;2022-08-11T21:18:22;19.80;57.60
814;DHT22;389;48.710;9.392;2022-08-11T21:21:07;19.80;57.80
814;DHT22;389;48.710;9.392;2022-08-11T21:23:56;19.80;57.20
814;DHT22;389;48.710;9.392;2022-08-11T21:26:43;19.80;56.60
814;DHT22;389;48.710;9.392;2022-08-11T21:29:34;19.90;56.40
814;DHT22;389;48.710;9.392;2022-08-11T21:32:21;20.10;56.30
814;DHT22;389;48.710;9.392;2022-08-11T21:35:06;20.10;56.10
814;DHT22;389;48.710;9.392;2022-08-11T21:37:51;20.20;56.20
814;DHT22;389;48.710;9.392;2022-08-11T21:40:37;20.30;56.00
814;DHT22;389;48.710;9.392;2022-08-11T21:43:23;20.40;55.90